Time,TemperatureF,DewpointF,PressureIn,WindDirection,WindDirectionDegrees,WindSpeedMPH,WindSpeedGustMPH,Humidity,HourlyPrecipIn,Conditions,Clouds,dailyrainin,SolarRadiationWatts/m^2,SoftwareType,DateUTC
2013-12-02 00:01:00,52.0,19.0,-100.00,WNW,284,0.0,9.0,27,0.00,,,0.00,0.000000,,2013-12-02 08:01:00,
2013-12-02 00:11:00,52.0,19.0,-100.00,WNW,284,0.0,9.0,27,0.00,,,0.00,0.000000,,2013-12-02 08:11:00,
2013-12-02 00:21:00,52.0,19.0,-100.00,WNW,284,0.0,9.0,27,0.00,,,0.00,0.000000,,2013-12-02 08:21:00,
2013-12-02 00:52:00,54.0,19.0,-100.00,NW,322,4.0,8.0,25,0.00,,,0.00,0.000000,,2013-12-02 08:52:00,
2013-12-02 01:01:00,54.0,19.0,-100.00,NW,322,4.0,8.0,25,0.00,,,0.00,0.000000,,2013-12-02 09:01:00,
2013-12-02 01:11:00,54.0,19.0,-100.00,NW,322,4.0,8.0,25,0.00,,,0.00,0.000000,,2013-12-02 09:11:00,
2013-12-02 01:21:00,54.0,19.0,-100.00,NW,322,4.0,8.0,25,0.00,,,0.00,0.000000,,2013-12-02 09:21:00,
2013-12-02 01:54:00,53.0,15.0,-100.00,WSW,239,1.0,8.0,22,0.00,,,-99.99,0.000000,,2013-12-02 09:54:00,
2013-12-02 02:03:00,53.0,15.0,-100.00,WSW,239,1.0,8.0,22,0.00,,,-99.99,0.000000,,2013-12-02 10:03:00,
2013-12-02 02:12:00,53.0,15.0,-100.00,WSW,239,1.0,8.0,22,0.00,,,-99.99,0.000000,,2013-12-02 10:12:00,
2013-12-02 02:23:00,53.0,15.0,-100.00,WSW,239,1.0,8.0,22,0.00,,,-99.99,0.000000,,2013-12-02 10:23:00,
2013-12-02 02:52:00,53.0,17.0,-100.00,NW,312,5.0,8.0,24,0.00,,,0.00,0.000000,,2013-12-02 10:52:00,
2013-12-02 03:02:00,53.0,17.0,-100.00,NW,312,5.0,8.0,24,0.00,,,0.00,0.000000,,2013-12-02 11:02:00,
2013-12-02 03:12:00,53.0,17.0,-100.00,NW,312,5.0,8.0,24,0.00,,,0.00,0.000000,,2013-12-02 11:12:00,
2013-12-02 03:22:00,53.0,17.0,-100.00,NW,312,5.0,8.0,24,0.00,,,0.00,0.000000,,2013-12-02 11:22:00,
2013-12-02 03:53:00,53.0,14.0,-100.00,WSW,240,3.0,7.0,21,0.00,,,0.00,0.000000,,2013-12-02 11:53:00,
2013-12-02 04:02:00,53.0,14.0,-100.00,WSW,240,3.0,7.0,21,0.00,,,0.00,0.000000,,2013-12-02 12:02:00,
2013-12-02 04:11:00,53.0,14.0,-100.00,WSW,240,3.0,7.0,21,0.00,,,0.00,0.000000,,2013-12-02 12:11:00,
2013-12-02 04:21:00,53.0,14.0,-100.00,WSW,240,3.0,7.0,21,0.00,,,0.00,0.000000,,2013-12-02 12:21:00,
2013-12-02 04:52:00,51.0,17.0,-100.00,NW,323,3.0,8.0,26,0.00,,,0.00,0.000000,,2013-12-02 12:52:00,
2013-12-02 05:01:00,51.0,17.0,-100.00,NW,323,3.0,8.0,26,0.00,,,0.00,0.000000,,2013-12-02 13:01:00,
2013-12-02 05:12:00,51.0,17.0,-100.00,NW,323,3.0,8.0,26,0.00,,,0.00,0.000000,,2013-12-02 13:12:00,
2013-12-02 05:21:00,51.0,17.0,-100.00,NW,323,3.0,8.0,26,0.00,,,0.00,0.000000,,2013-12-02 13:21:00,
2013-12-02 05:52:00,50.0,15.0,-100.00,South,189,7.0,10.0,24,0.00,,,0.00,0.000000,,2013-12-02 13:52:00,
2013-12-02 06:02:00,50.0,15.0,-100.00,South,189,7.0,10.0,24,0.00,,,0.00,0.000000,,2013-12-02 14:02:00,
2013-12-02 06:11:00,50.0,15.0,-100.00,South,189,7.0,10.0,24,0.00,,,0.00,0.000000,,2013-12-02 14:11:00,
2013-12-02 06:21:00,50.0,15.0,-100.00,South,189,7.0,10.0,24,0.00,,,0.00,0.000000,,2013-12-02 14:21:00,
2013-12-02 06:52:00,50.0,18.0,-100.00,WSW,250,0.0,11.0,28,0.00,,,0.00,0.000000,,2013-12-02 14:52:00,
2013-12-02 07:02:00,50.0,18.0,-100.00,WSW,250,0.0,11.0,28,0.00,,,0.00,0.000000,,2013-12-02 15:02:00,
2013-12-02 07:12:00,50.0,18.0,-100.00,WSW,250,0.0,11.0,28,0.00,,,0.00,0.000000,,2013-12-02 15:12:00,
2013-12-02 07:21:00,50.0,18.0,-100.00,WSW,250,0.0,11.0,28,0.00,,,0.00,0.000000,,2013-12-02 15:21:00,
2013-12-02 07:54:00,54.0,16.0,-100.00,SW,219,4.0,10.0,22,0.00,,,0.00,29.000000,,2013-12-02 15:54:00,
2013-12-02 08:03:00,54.0,16.0,-100.00,SW,219,4.0,10.0,22,0.00,,,0.00,29.000000,,2013-12-02 16:03:00,
2013-12-02 10:52:00,60.0,16.0,-100.00,SSE,152,4.0,8.0,18,0.00,,,0.00,642.000000,,2013-12-02 18:52:00,
2013-12-02 11:02:00,60.0,16.0,-100.00,SSE,152,4.0,8.0,18,0.00,,,0.00,642.000000,,2013-12-02 19:02:00,
2013-12-02 11:21:00,60.0,16.0,-100.00,SSE,152,4.0,8.0,18,0.00,,,0.00,642.000000,,2013-12-02 19:21:00,
2013-12-02 11:52:00,65.0,20.0,-100.00,SE,137,0.0,6.0,18,0.00,,,0.00,743.000000,,2013-12-02 19:52:00,
2013-12-02 12:02:00,65.0,20.0,-100.00,SE,137,0.0,6.0,18,0.00,,,0.00,743.000000,,2013-12-02 20:02:00,
2013-12-02 12:21:00,65.0,20.0,-100.00,SE,137,0.0,6.0,18,0.00,,,0.00,743.000000,,2013-12-02 20:21:00,
2013-12-02 12:52:00,66.0,21.0,-100.00,SSW,205,0.0,6.0,18,0.00,,,0.00,768.000000,,2013-12-02 20:52:00,
2013-12-02 13:02:00,66.0,21.0,-100.00,SSW,205,0.0,6.0,18,0.00,,,0.00,768.000000,,2013-12-02 21:02:00,
2013-12-02 13:11:00,66.0,21.0,-100.00,SSW,205,0.0,6.0,18,0.00,,,0.00,768.000000,,2013-12-02 21:11:00,
2013-12-02 13:21:00,66.0,21.0,-100.00,SSW,205,0.0,6.0,18,0.00,,,0.00,768.000000,,2013-12-02 21:21:00,
2013-12-02 13:53:00,64.0,20.0,-100.00,East,79,1.0,6.0,18,0.00,,,0.00,715.000000,,2013-12-02 21:53:00,
2013-12-02 14:03:00,64.0,20.0,-100.00,East,79,1.0,6.0,18,0.00,,,0.00,715.000000,,2013-12-02 22:03:00,
2013-12-02 14:13:00,64.0,20.0,-100.00,East,79,1.0,6.0,18,0.00,,,0.00,715.000000,,2013-12-02 22:13:00,
2013-12-02 14:22:00,64.0,20.0,-100.00,East,79,1.0,6.0,18,0.00,,,0.00,715.000000,,2013-12-02 22:22:00,
2013-12-02 14:53:00,65.0,15.0,-100.00,SSW,201,0.0,5.0,14,0.00,,,0.00,578.000000,,2013-12-02 22:53:00,
2013-12-02 15:02:00,65.0,15.0,-100.00,SSW,201,0.0,5.0,14,0.00,,,0.00,578.000000,,2013-12-02 23:02:00,
2013-12-02 15:12:00,65.0,15.0,-100.00,SSW,201,0.0,5.0,14,0.00,,,0.00,578.000000,,2013-12-02 23:12:00,
2013-12-02 15:22:00,65.0,15.0,-100.00,SSW,201,0.0,5.0,14,0.00,,,0.00,578.000000,,2013-12-02 23:22:00,
2013-12-02 15:53:00,58.0,12.0,-100.00,NW,304,0.0,7.0,16,0.00,,,0.00,196.000000,,2013-12-02 23:53:00,
2013-12-02 16:02:00,58.0,12.0,-100.00,NW,304,0.0,7.0,16,0.00,,,0.00,196.000000,,2013-12-03 00:02:00,
2013-12-02 16:11:00,58.0,12.0,-100.00,NW,304,0.0,7.0,16,0.00,,,0.00,196.000000,,2013-12-03 00:11:00,
2013-12-02 16:21:00,58.0,12.0,-100.00,NW,304,0.0,7.0,16,0.00,,,0.00,196.000000,,2013-12-03 00:21:00,
2013-12-02 16:52:00,57.0,13.0,-100.00,SSW,192,0.0,8.0,17,0.00,,,0.00,61.000000,,2013-12-03 00:52:00,
2013-12-02 17:01:00,57.0,13.0,-100.00,SSW,192,0.0,8.0,17,0.00,,,0.00,61.000000,,2013-12-03 01:01:00,
2013-12-02 17:11:00,57.0,13.0,-100.00,SSW,192,0.0,8.0,17,0.00,,,0.00,61.000000,,2013-12-03 01:11:00,
2013-12-02 17:21:00,57.0,13.0,-100.00,SSW,192,0.0,8.0,17,0.00,,,0.00,61.000000,,2013-12-03 01:21:00,
2013-12-02 17:52:00,61.0,13.0,-100.00,SE,146,0.0,7.0,15,0.00,,,0.00,3.000000,,2013-12-03 01:52:00,
2013-12-02 18:01:00,61.0,13.0,-100.00,SE,146,0.0,7.0,15,0.00,,,0.00,3.000000,,2013-12-03 02:01:00,
2013-12-02 18:11:00,61.0,13.0,-100.00,SE,146,0.0,7.0,15,0.00,,,0.00,3.000000,,2013-12-03 02:11:00,
2013-12-02 18:21:00,61.0,13.0,-100.00,SE,146,0.0,7.0,15,0.00,,,0.00,3.000000,,2013-12-03 02:21:00,
2013-12-02 18:52:00,63.0,11.0,-100.00,SW,214,0.0,22.0,13,0.00,,,0.00,0.000000,,2013-12-03 02:52:00,
2013-12-02 19:02:00,63.0,11.0,-100.00,SW,214,0.0,22.0,13,0.00,,,0.00,0.000000,,2013-12-03 03:02:00,
2013-12-02 19:11:00,63.0,11.0,-100.00,SW,214,0.0,22.0,13,0.00,,,0.00,0.000000,,2013-12-03 03:11:00,
2013-12-02 19:21:00,63.0,11.0,-100.00,SW,214,0.0,22.0,13,0.00,,,0.00,0.000000,,2013-12-03 03:21:00,
2013-12-02 19:54:00,65.0,7.0,-100.00,West,262,10.0,18.0,10,0.00,,,0.00,0.000000,,2013-12-03 03:54:00,
2013-12-02 20:03:00,65.0,7.0,-100.00,West,262,10.0,18.0,10,0.00,,,0.00,0.000000,,2013-12-03 04:03:00,
2013-12-02 20:23:00,65.0,7.0,-100.00,West,262,10.0,18.0,10,0.00,,,0.00,0.000000,,2013-12-03 04:23:00,
2013-12-02 20:52:00,61.0,6.0,-100.00,WSW,254,9.0,21.0,11,0.00,,,0.00,0.000000,,2013-12-03 04:52:00,
2013-12-02 21:02:00,61.0,6.0,-100.00,WSW,254,9.0,21.0,11,0.00,,,0.00,0.000000,,2013-12-03 05:02:00,
2013-12-02 21:12:00,61.0,6.0,-100.00,WSW,254,9.0,21.0,11,0.00,,,0.00,0.000000,,2013-12-03 05:12:00,
2013-12-02 21:22:00,61.0,6.0,-100.00,WSW,254,9.0,21.0,11,0.00,,,0.00,0.000000,,2013-12-03 05:22:00,
2013-12-02 21:53:00,62.0,7.0,-100.00,WSW,255,10.0,20.0,11,0.00,,,0.00,0.000000,,2013-12-03 05:53:00,
2013-12-02 22:02:00,62.0,7.0,-100.00,WSW,255,10.0,20.0,11,0.00,,,0.00,0.000000,,2013-12-03 06:02:00,
2013-12-02 22:12:00,62.0,7.0,-100.00,WSW,255,10.0,20.0,11,0.00,,,0.00,0.000000,,2013-12-03 06:12:00,
2013-12-02 22:22:00,62.0,7.0,-100.00,WSW,255,10.0,20.0,11,0.00,,,0.00,0.000000,,2013-12-03 06:22:00,
2013-12-02 22:52:00,62.0,9.0,-100.00,WSW,252,11.0,20.0,12,0.00,,,0.00,0.000000,,2013-12-03 06:52:00,
2013-12-02 23:02:00,62.0,9.0,-100.00,WSW,252,11.0,20.0,12,0.00,,,0.00,0.000000,,2013-12-03 07:02:00,
2013-12-02 23:12:00,62.0,9.0,-100.00,WSW,252,11.0,20.0,12,0.00,,,0.00,0.000000,,2013-12-03 07:12:00,
2013-12-02 23:22:00,62.0,9.0,-100.00,WSW,252,11.0,20.0,12,0.00,,,0.00,0.000000,,2013-12-03 07:22:00,
2013-12-02 23:52:00,59.0,11.0,-100.00,WSW,240,8.0,25.0,15,0.00,,,0.00,0.000000,,2013-12-03 07:52:00,